Time;durP1;ratioP1;P1;durP2;ratioP2;P2;SDS_P1;SDS_P2;PMS_P1;PMS_P2;Temp;Humidity;BMP_temperature;BMP_pressure;BME280_temperature;BME280_humidity;BME280_pressure;Samples;Min_cycle;Max_cycle;Signal;HPM_P1;HPM_P2
2023/06/10 00:00:44;;;;;;;32.40;3.83;;;;;;;23.69;59.53;99253.25;7308319;19;128971;-40
2023/06/10 00:03:10;;;;;;;106.03;7.37;;;;;;;23.70;59.67;99254.09;7307249;19;129119;-39
2023/06/10 00:05:38;;;;;;;39.13;4.10;;;;;;;23.71;59.59;99259.19;7307659;19;129133;-37
2023/06/10 00:08:07;;;;;;;33.22;3.83;;;;;;;23.70;59.64;99264.59;7307781;19;131097;-39
2023/06/10 00:10:36;;;;;;;62.63;5.65;;;;;;;23.69;60.01;99258.50;7308070;19;129426;-39
2023/06/10 00:13:03;;;;;;;45.25;4.40;;;;;;;23.68;59.35;99256.88;7308741;19;129310;-40
2023/06/10 00:15:29;;;;;;;49.30;4.60;;;;;;;23.71;60.01;99250.47;7306390;19;130319;-39
2023/06/10 00:17:54;;;;;;;30.47;3.77;;;;;;;23.69;59.61;99258.50;7309096;19;129413;-38
2023/06/10 00:20:22;;;;;;;58.80;4.63;;;;;;;23.71;59.02;99253.94;7307081;19;129150;-40
2023/06/10 00:22:49;;;;;;;74.55;5.53;;;;;;;23.72;60.08;99258.19;7305511;19;128866;-39
2023/06/10 00:25:14;;;;;;;44.80;4.35;;;;;;;23.61;59.37;99240.13;7310095;19;130843;-40
2023/06/10 00:27:40;;;;;;;29.03;3.30;;;;;;;23.73;59.67;99269.50;7315393;19;130029;-38
2023/06/10 00:30:06;;;;;;;41.63;4.57;;;;;;;23.73;59.41;99259.84;7315640;19;129513;-39
2023/06/10 00:32:36;;;;;;;48.75;4.10;;;;;;;23.74;60.20;99265.91;7315607;19;129320;-38
2023/06/10 00:35:06;;;;;;;40.00;4.32;;;;;;;23.74;59.62;99260.66;7314957;19;129230;-40
2023/06/10 00:37:32;;;;;;;25.10;3.58;;;;;;;23.64;59.66;99246.84;7314403;19;131276;-37
2023/06/10 00:39:57;;;;;;;36.75;3.75;;;;;;;23.72;58.88;99268.69;7315553;19;129268;-39
2023/06/10 00:42:24;;;;;;;101.23;7.33;;;;;;;23.73;59.83;99264.25;7313810;19;130301;-40
2023/06/10 00:44:50;;;;;;;74.95;5.68;;;;;;;23.63;59.92;99248.66;7312566;19;129484;-40
2023/06/10 00:47:16;;;;;;;40.92;4.25;;;;;;;23.74;59.71;99271.97;7315568;19;130212;-37
2023/06/10 00:49:42;;;;;;;29.63;3.47;;;;;;;23.75;59.92;99286.72;7314843;19;129218;-39
2023/06/10 00:52:08;;;;;;;46.97;4.23;;;;;;;23.73;60.02;99285.28;7314422;19;129815;-42
2023/06/10 00:54:34;;;;;;;37.50;4.00;;;;;;;23.72;59.85;99287.06;7314778;19;130529;-39
2023/06/10 00:57:01;;;;;;;44.58;4.38;;;;;;;23.73;59.16;99288.72;7315629;19;129303;-40
2023/06/10 00:59:28;;;;;;;41.85;4.32;;;;;;;23.73;59.53;99296.59;7311255;19;129313;-38
2023/06/10 01:01:53;;;;;;;60.13;5.10;;;;;;;23.74;59.65;99292.16;7310012;19;129358;-39
2023/06/10 01:04:19;;;;;;;43.97;4.13;;;;;;;23.75;59.57;99294.59;7314603;19;129130;-37
2023/06/10 01:06:57;;;;;;;28.20;3.63;;;;;;;23.74;59.58;99298.22;7314353;19;130299;-38
2023/06/10 01:09:38;;;;;;;38.30;4.13;;;;;;;23.65;59.81;99296.56;7314523;19;129318;-37
2023/06/10 01:12:09;;;;;;;5.88;2.65;;;;;;;23.73;58.83;99301.00;7315571;19;128947;-39
2023/06/10 01:14:36;;;;;;;53.03;4.95;;;;;;;23.63;59.56;99297.72;7310777;19;130239;-38
2023/06/10 01:17:03;;;;;;;48.95;4.65;;;;;;;23.65;59.63;99293.13;7312970;19;129312;-39
2023/06/10 01:19:30;;;;;;;44.72;4.18;;;;;;;23.74;59.42;99313.97;7313399;19;129042;-40
2023/06/10 01:22:00;;;;;;;29.33;3.55;;;;;;;23.73;59.29;99311.50;7313057;19;128867;-41
2023/06/10 01:24:26;;;;;;;37.03;4.28;;;;;;;23.75;59.87;99310.34;7313206;19;130377;-37
2023/06/10 01:26:55;;;;;;;49.78;4.88;;;;;;;23.74;60.05;99308.72;7311867;19;129671;-40
2023/06/10 01:29:33;;;;;;;39.38;4.22;;;;;;;23.74;59.83;99313.97;7315628;19;129385;-39
2023/06/10 01:32:09;;;;;;;55.78;5.10;;;;;;;23.75;59.95;99320.84;7310799;19;129626;-39
2023/06/10 01:34:37;;;;;;;42.63;4.65;;;;;;;23.75;59.93;99310.34;7311705;19;129210;-41
2023/06/10 01:37:04;;;;;;;43.60;4.70;;;;;;;23.75;59.93;99317.44;7307807;19;130089;-40
2023/06/10 01:39:31;;;;;;;52.83;4.93;;;;;;;23.75;60.16;99315.59;7314493;19;129374;-39
2023/06/10 01:41:57;;;;;;;51.40;4.60;;;;;;;23.74;59.10;99319.22;7309417;19;129708;-40
2023/06/10 01:44:23;;;;;;;34.27;4.03;;;;;;;23.75;59.56;99323.47;7313374;19;129099;-40
2023/06/10 01:46:49;;;;;;;36.15;4.25;;;;;;;23.77;59.37;99323.31;7313956;19;129829;-38
2023/06/10 01:49:15;;;;;;;59.03;5.37;;;;;;;23.76;59.91;99326.94;7313508;19;129437;-39
2023/06/10 01:51:40;;;;;;;32.43;3.90;;;;;;;23.74;59.57;99329.72;7314401;19;129330;-39
2023/06/10 01:54:06;;;;;;;32.83;4.03;;;;;;;23.76;59.91;99326.94;7313200;19;129032;-39
2023/06/10 01:56:31;;;;;;;31.90;3.70;;;;;;;23.76;59.12;99330.41;7314658;19;129455;-41
2023/06/10 01:58:59;;;;;;;64.83;5.43;;;;;;;23.75;59.82;99336.59;7311628;19;129214;-40
2023/06/10 02:01:25;;;;;;;52.30;5.30;;;;;;;23.75;59.52;99344.47;7313478;19;129043;-39
2023/06/10 02:03:51;;;;;;;;;;;;;;;23.83;59.72;99339.25;7313262;19;129072;-38
2023/06/10 02:06:16;;;;;;;46.47;4.88;;;;;;;23.77;59.12;99339.91;7313788;19;130117;-40
2023/06/10 02:08:41;;;;;;;61.00;5.30;;;;;;;23.74;59.33;99340.22;7312641;19;129355;-38
2023/06/10 02:11:07;;;;;;;56.83;5.53;;;;;;;23.77;59.89;99350.41;7313070;19;129535;-38
2023/06/10 02:13:32;;;;;;;55.50;4.87;;;;;;;23.78;59.61;99340.72;7313100;19;129107;-39
2023/06/10 02:15:58;;;;;;;67.72;6.35;;;;;;;23.77;59.61;99339.91;7311194;19;129690;-38
2023/06/10 02:18:23;;;;;;;55.07;5.13;;;;;;;23.77;59.27;99345.16;7312642;19;129175;-39
2023/06/10 02:20:48;;;;;;;31.50;4.53;;;;;;;23.67;59.17;99331.34;7311558;19;129678;-40
2023/06/10 02:23:14;;;;;;;50.03;4.80;;;;;;;23.76;59.72;99346.16;7311783;19;129618;-39
2023/06/10 02:25:40;;;;;;;41.43;4.57;;;;;;;23.75;59.29;99351.56;7311011;19;130766;-39
2023/06/10 02:28:05;;;;;;;69.72;6.28;;;;;;;23.77;59.30;99353.03;7311398;19;130470;-38
2023/06/10 02:30:31;;;;;;;56.83;5.47;;;;;;;23.76;59.88;99358.44;7312760;19;129450;-40
2023/06/10 02:32:56;;;;;;;38.20;4.60;;;;;;;23.78;59.61;99353.84;7311515;19;129145;-38
2023/06/10 02:35:22;;;;;;;50.40;5.00;;;;;;;23.77;59.44;99350.41;7311767;19;130320;-39
2023/06/10 02:37:47;;;;;;;72.57;6.20;;;;;;;23.78;59.34;99352.06;7312306;19;131358;-38
2023/06/10 02:40:13;;;;;;;22.75;3.88;;;;;;;23.78;59.25;99354.69;7311274;19;128994;-40
2023/06/10 02:42:38;;;;;;;29.52;3.80;;;;;;;23.78;59.58;99359.94;7311871;19;129958;-37
2023/06/10 02:45:04;;;;;;;59.83;5.47;;;;;;;23.81;59.46;99354.38;7310232;19;129755;-39
2023/06/10 02:47:30;;;;;;;43.38;4.70;;;;;;;23.79;58.92;99347.63;7311564;19;128777;-39
2023/06/10 02:49:55;;;;;;;32.80;4.50;;;;;;;23.71;59.83;99335.31;7311319;19;128848;-40
2023/06/10 02:52:20;;;;;;;17.40;3.72;;;;;;;23.80;59.82;99350.06;7311288;19;129273;-37
2023/06/10 02:54:46;;;;;;;54.97;5.30;;;;;;;23.79;59.47;99348.44;7308066;19;129567;-38
2023/06/10 02:57:11;;;;;;;33.90;4.25;;;;;;;23.79;59.53;99345.81;7313128;19;129562;-41
2023/06/10 02:59:36;;;;;;;18.67;3.17;;;;;;;23.80;59.85;99339.56;7310335;19;130088;-37
2023/06/10 03:02:02;;;;;;;39.10;4.37;;;;;;;23.80;59.55;99346.66;7310195;19;129378;-40
2023/06/10 03:04:28;;;;;;;73.03;5.87;;;;;;;23.79;58.95;99347.63;7306651;19;130944;-40
2023/06/10 03:06:54;;;;;;;27.45;4.10;;;;;;;23.79;59.30;99353.69;7311911;19;130806;-38
2023/06/10 03:09:20;;;;;;;38.57;4.40;;;;;;;23.77;59.37;99345.16;7311091;19;130477;-41
2023/06/10 03:11:45;;;;;;;22.60;3.83;;;;;;;23.74;59.33;99345.47;7310093;19;129048;-37
2023/06/10 03:14:10;;;;;;;69.73;5.83;;;;;;;23.80;59.04;99352.69;7308876;19;131085;-39
2023/06/10 03:16:40;;;;;;;37.23;4.40;;;;;;;23.81;59.17;99361.41;7307967;19;129759;-39
2023/06/10 03:19:06;;;;;;;29.27;4.10;;;;;;;23.68;59.39;99343.50;7311023;19;129842;-40
2023/06/10 03:21:31;;;;;;;75.23;6.57;;;;;;;23.80;59.79;99355.34;7306203;19;129545;-39
2023/06/10 03:23:56;;;;;;;50.77;5.13;;;;;;;23.75;59.18;99349.75;7310402;19;131027;-39
2023/06/10 03:26:22;;;;;;;41.10;4.50;;;;;;;23.81;59.74;99357.00;7310282;19;129236;-38
2023/06/10 03:28:48;;;;;;;27.83;3.75;;;;;;;23.81;58.82;99357.00;7310394;19;129275;-39
2023/06/10 03:31:13;;;;;;;62.47;5.53;;;;;;;23.81;59.11;99364.03;7308360;19;130126;-40
2023/06/10 03:33:38;;;;;;;38.87;4.70;;;;;;;23.82;59.72;99363.88;7308541;19;129316;-40
2023/06/10 03:36:04;;;;;;;46.00;5.17;;;;;;;23.83;59.66;99362.09;7308134;19;128957;-42
2023/06/10 03:38:30;;;;;;;55.10;5.17;;;;;;;23.82;59.27;99363.88;7309575;19;128843;-39
2023/06/10 03:40:55;;;;;;;89.53;7.63;;;;;;;23.74;59.39;99353.34;7301951;19;129894;-40
2023/06/10 03:43:21;;;;;;;37.73;4.40;;;;;;;23.80;59.30;99363.22;7309915;19;130212;-39
2023/06/10 03:45:48;;;;;;;33.67;4.47;;;;;;;23.81;59.68;99372.75;7308290;19;129698;-38
2023/06/10 03:48:13;;;;;;;30.38;3.97;;;;;;;23.83;58.99;99368.13;7307097;19;128917;-39
2023/06/10 03:50:38;;;;;;;22.60;3.80;;;;;;;23.80;59.01;99376.34;7309236;19;129259;-40
2023/06/10 03:53:04;;;;;;;31.58;4.28;;;;;;;23.81;59.46;99372.75;7310229;19;129097;-39
2023/06/10 03:55:31;;;;;;;31.83;4.07;;;;;;;23.82;59.33;99379.63;7308923;19;129265;-39
2023/06/10 03:57:56;;;;;;;;;;;;;;;23.88;59.95;99381.59;7309254;19;128899;-38
2023/06/10 04:00:21;;;;;;;73.43;6.35;;;;;;;23.82;59.59;99379.63;7310753;19;129838;-38
2023/06/10 04:02:49;;;;;;;32.47;4.47;;;;;;;23.79;59.38;99374.69;7316038;19;129551;-38
2023/06/10 04:05:16;;;;;;;22.02;3.70;;;;;;;23.80;58.91;99380.78;7314377;19;130104;-39
2023/06/10 04:07:42;;;;;;;43.60;4.53;;;;;;;23.82;58.93;99389.28;7316131;19;131520;-37
2023/06/10 04:10:08;;;;;;;57.42;5.45;;;;;;;23.81;59.43;99383.25;7316049;19;129373;-40
2023/06/10 04:12:34;;;;;;;59.83;6.22;;;;;;;23.81;59.34;99382.41;7317903;19;131660;-38
2023/06/10 04:15:00;;;;;;;62.50;5.80;;;;;;;23.83;58.77;99385.72;7314583;19;130772;-38
2023/06/10 04:17:25;;;;;;;29.33;4.25;;;;;;;23.83;58.85;99383.09;7317385;19;129031;-38
2023/06/10 04:19:51;;;;;;;56.22;5.38;;;;;;;23.83;59.13;99375.22;7317278;19;129787;-39
2023/06/10 04:22:17;;;;;;;33.22;4.43;;;;;;;23.83;59.40;99389.13;7317601;19;130372;-38
2023/06/10 04:24:43;;;;;;;34.83;4.53;;;;;;;23.85;59.28;99383.75;7316394;19;129416;-39
2023/06/10 04:27:08;;;;;;;40.20;4.93;;;;;;;23.83;58.65;99386.50;7317880;19;129357;-38
2023/06/10 04:29:34;;;;;;;51.95;5.47;;;;;;;23.83;58.65;99386.50;7317785;19;130077;-39
2023/06/10 04:32:01;;;;;;;73.15;6.68;;;;;;;23.84;59.22;99382.94;7315145;19;129511;-39
2023/06/10 04:34:27;;;;;;;26.83;4.28;;;;;;;23.73;58.82;99364.84;7315672;19;130451;-38
2023/06/10 04:36:52;;;;;;;52.77;5.90;;;;;;;23.85;58.79;99383.75;7316128;19;130132;-37
2023/06/10 04:39:18;;;;;;;45.97;4.95;;;;;;;23.79;59.41;99372.06;7316754;19;130375;-38
2023/06/10 04:41:43;;;;;;;30.03;3.70;;;;;;;23.83;59.00;99378.63;7315350;19;129486;-38
2023/06/10 04:44:10;;;;;;;41.50;4.90;;;;;;;23.76;59.11;99368.94;7316583;19;129607;-38
2023/06/10 04:46:35;;;;;;;50.50;5.38;;;;;;;23.85;58.82;99384.56;7316531;19;128981;-39
2023/06/10 04:49:01;;;;;;;55.90;5.90;;;;;;;23.85;59.11;99379.31;7314651;19;129096;-40
2023/06/10 04:51:27;;;;;;;28.33;4.30;;;;;;;23.84;59.32;99382.94;7316419;19;129182;-37
2023/06/10 04:53:53;;;;;;;19.67;3.97;;;;;;;23.86;58.62;99394.09;7315631;19;129182;-39
2023/06/10 04:56:19;;;;;;;57.17;5.67;;;;;;;23.84;58.96;99393.44;7316689;19;129796;-38
2023/06/10 04:58:45;;;;;;;38.75;4.45;;;;;;;23.82;59.30;99390.13;7316762;19;129147;-39
2023/06/10 05:01:10;;;;;;;39.47;5.23;;;;;;;23.83;59.44;99390.97;7315261;19;129612;-40
2023/06/10 05:03:35;;;;;;;30.13;4.43;;;;;;;23.84;58.96;99389.97;7317401;19;129331;-38
2023/06/10 05:06:01;;;;;;;63.10;5.68;;;;;;;23.85;59.03;99384.56;7314617;19;129220;-39
2023/06/10 05:08:26;;;;;;;22.50;3.57;;;;;;;23.85;59.23;99384.56;7314407;19;129629;-39
2023/06/10 05:10:52;;;;;;;34.38;4.53;;;;;;;23.84;58.75;99385.56;7314347;19;130101;-38
2023/06/10 05:13:17;;;;;;;38.03;4.30;;;;;;;23.83;59.58;99389.13;7314778;19;129195;-40
2023/06/10 05:15:44;;;;;;;72.97;5.93;;;;;;;23.81;59.26;99388.50;7314231;19;129042;-38
2023/06/10 05:18:11;;;;;;;28.65;3.92;;;;;;;23.81;59.56;99399.00;7315779;19;130183;-38
2023/06/10 05:20:36;;;;;;;50.83;5.03;;;;;;;23.83;59.60;99399.63;7315503;19;130785;-39
2023/06/10 05:23:01;;;;;;;30.97;4.23;;;;;;;23.74;59.29;99386.66;7315142;19;128966;-37
2023/06/10 05:25:30;;;;;;;92.40;7.87;;;;;;;23.82;59.35;99399.81;7312751;19;128888;-40
2023/06/10 05:27:55;;;;;;;40.15;4.65;;;;;;;23.81;58.78;99401.63;7316199;19;130190;-39
2023/06/10 05:30:21;;;;;;;58.83;5.47;;;;;;;23.81;59.03;99408.66;7314030;19;129026;-40
2023/06/10 05:32:46;;;;;;;68.20;5.77;;;;;;;23.76;59.22;99393.41;7314257;19;129233;-37
2023/06/10 05:35:12;;;;;;;47.05;5.13;;;;;;;23.82;59.13;99400.63;7314336;19;129541;-39
2023/06/10 05:37:37;;;;;;;33.08;3.92;;;;;;;23.75;59.22;99389.13;7315252;19;129224;-40
2023/06/10 05:40:04;;;;;;;22.90;3.83;;;;;;;23.83;59.66;99407.50;7315100;19;131071;-38
2023/06/10 05:42:29;;;;;;;48.63;4.85;;;;;;;23.81;59.28;99406.03;7311136;19;130468;-40
2023/06/10 05:44:55;;;;;;;48.80;4.97;;;;;;;23.83;59.35;99407.50;7311011;19;129371;-38
2023/06/10 05:47:20;;;;;;;47.33;4.90;;;;;;;23.84;59.32;99406.56;7309802;19;130186;-38
2023/06/10 05:49:48;;;;;;;33.60;4.15;;;;;;;23.84;58.92;99413.59;7312510;19;129434;-40
2023/06/10 05:52:13;;;;;;;50.40;5.03;;;;;;;23.83;59.02;99409.34;7310505;19;130494;-38
2023/06/10 05:54:38;;;;;;;57.00;5.37;;;;;;;23.86;59.48;99416.91;7309201;19;129981;-39
2023/06/10 05:57:05;;;;;;;42.87;4.67;;;;;;;23.73;59.18;99396.34;7312946;19;129118;-41
2023/06/10 05:59:31;;;;;;;36.28;4.57;;;;;;;23.81;58.91;99408.66;7314913;19;131448;-40
2023/06/10 06:01:56;;;;;;;49.23;5.00;;;;;;;23.82;59.48;99410.31;7309447;19;129291;-40
2023/06/10 06:04:22;;;;;;;29.50;3.97;;;;;;;23.80;58.60;99412.28;7315444;19;128923;-40
2023/06/10 06:06:47;;;;;;;45.07;4.87;;;;;;;23.82;59.28;99405.88;7311971;19;129141;-40
2023/06/10 06:09:12;;;;;;;16.52;3.25;;;;;;;23.81;59.33;99414.75;7313449;19;129884;-39
2023/06/10 06:11:38;;;;;;;65.50;5.60;;;;;;;23.82;59.33;99407.69;7309603;19;132629;-39
2023/06/10 06:14:03;;;;;;;45.50;4.47;;;;;;;23.81;59.74;99420.00;7312113;19;131171;-39
2023/06/10 06:16:29;;;;;;;19.40;2.97;;;;;;;23.81;58.66;99419.16;7314407;19;129536;-39
2023/06/10 06:18:54;;;;;;;33.03;4.20;;;;;;;23.80;58.60;99414.91;7314926;19;129505;-38
2023/06/10 06:21:19;;;;;;;88.32;6.35;;;;;;;23.79;59.35;99410.63;7311282;19;129355;-38
2023/06/10 06:23:45;;;;;;;16.40;3.05;;;;;;;23.78;59.05;99416.88;7307511;19;129421;-38
2023/06/10 06:26:10;;;;;;;38.58;4.25;;;;;;;23.80;59.62;99415.72;7310475;19;129967;-40
2023/06/10 06:28:36;;;;;;;34.87;4.07;;;;;;;23.79;59.02;99421.97;7310521;19;129446;-38
2023/06/10 06:31:01;;;;;;;49.90;4.83;;;;;;;23.82;59.44;99426.06;7312706;19;129246;-40
2023/06/10 06:33:26;;;;;;;28.95;3.88;;;;;;;23.80;59.66;99418.34;7312735;19;129117;-38
2023/06/10 06:35:52;;;;;;;34.07;4.17;;;;;;;23.79;59.26;99416.69;7311897;19;129648;-40
2023/06/10 06:38:17;;;;;;;50.58;4.68;;;;;;;23.80;59.36;99423.59;7310607;19;129398;-41
2023/06/10 06:40:43;;;;;;;41.10;4.43;;;;;;;23.82;59.86;99428.69;7314616;19;129106;-40
2023/06/10 06:43:08;;;;;;;33.65;3.80;;;;;;;23.81;58.87;99425.25;7311422;19;129677;-39
2023/06/10 06:45:34;;;;;;;12.43;3.10;;;;;;;23.82;59.11;99429.50;7310596;19;130521;-40
2023/06/10 06:47:59;;;;;;;50.13;4.83;;;;;;;23.80;58.76;99428.84;7311934;19;129500;-38
2023/06/10 06:50:25;;;;;;;76.37;6.53;;;;;;;23.83;59.06;99438.22;7314224;19;129700;-38
2023/06/10 06:52:50;;;;;;;32.07;4.20;;;;;;;23.81;58.53;99435.75;7312042;19;129419;-40
2023/06/10 06:55:15;;;;;;;29.07;3.53;;;;;;;23.84;58.93;99440.69;7312728;19;129256;-38
2023/06/10 06:57:41;;;;;;;86.60;6.53;;;;;;;23.83;58.88;99444.28;7312573;19;129298;-41
2023/06/10 07:00:08;;;;;;;23.97;3.73;;;;;;;23.81;59.39;99450.69;7313684;19;129278;-41
2023/06/10 07:02:34;;;;;;;32.08;4.20;;;;;;;23.78;59.35;99451.81;7312931;19;128898;-38
2023/06/10 07:05:00;;;;;;;46.10;4.83;;;;;;;23.81;59.40;99461.19;7306900;19;129380;-38
2023/06/10 07:07:25;;;;;;;69.88;5.70;;;;;;;23.85;59.26;99463.31;7310969;19;130535;-38
2023/06/10 07:09:52;;;;;;;47.92;4.53;;;;;;;23.83;59.19;99459.22;7305677;19;130418;-38
2023/06/10 07:12:18;;;;;;;69.07;5.90;;;;;;;23.86;59.12;99457.09;7311334;19;129634;-39
2023/06/10 07:14:43;;;;;;;31.52;3.95;;;;;;;23.76;58.34;99448.53;7305280;19;130414;-38
2023/06/10 07:17:09;;;;;;;59.05;5.22;;;;;;;23.84;58.80;99461.69;7309701;19;129476;-42
2023/06/10 07:19:34;;;;;;;54.40;5.33;;;;;;;23.75;59.57;99441.63;7311279;19;129249;-38
2023/06/10 07:22:00;;;;;;;34.17;4.05;;;;;;;23.82;59.40;99462.81;7311512;19;129071;-38
2023/06/10 07:24:25;;;;;;;39.00;4.43;;;;;;;23.86;58.74;99454.47;7308681;19;129051;-40
2023/06/10 07:26:50;;;;;;;51.50;4.93;;;;;;;23.83;59.30;99465.28;7306281;19;129547;-38
2023/06/10 07:29:16;;;;;;;60.25;5.05;;;;;;;23.78;59.54;99451.00;7309617;19;129835;-39
2023/06/10 07:31:41;;;;;;;31.23;3.63;;;;;;;23.83;58.75;99460.03;7307177;19;129648;-40
2023/06/10 07:34:07;;;;;;;50.85;4.70;;;;;;;23.77;58.90;99454.59;7313258;19;130385;-39
2023/06/10 07:36:32;;;;;;;73.50;5.87;;;;;;;23.81;58.69;99467.25;7313779;19;131990;-38
2023/06/10 07:38:57;;;;;;;44.60;4.80;;;;;;;23.83;59.35;99475.78;7318116;19;129330;-40
2023/06/10 07:41:25;;;;;;;45.13;4.23;;;;;;;23.84;59.47;99477.44;7317426;19;129254;-38
2023/06/10 07:43:54;;;;;;;30.65;3.88;;;;;;;23.82;58.93;99474.16;7318356;19;129316;-38
2023/06/10 07:46:21;;;;;;;52.85;5.05;;;;;;;23.83;59.37;99477.59;7314490;19;130219;-39
2023/06/10 07:48:46;;;;;;;;;;;;;;;23.88;59.76;99484.00;7319784;19;129298;-38
2023/06/10 07:51:11;;;;;;;38.33;4.43;;;;;;;23.85;59.59;99479.06;7313818;19;129190;-38
2023/06/10 07:53:37;;;;;;;49.70;4.47;;;;;;;23.84;59.67;99482.69;7318736;19;129469;-39
2023/06/10 07:56:02;;;;;;;60.17;5.00;;;;;;;23.84;59.58;99477.44;7312614;19;130355;-40
2023/06/10 07:58:27;;;;;;;31.67;4.05;;;;;;;23.73;59.11;99459.34;7315430;19;128845;-38
2023/06/10 08:00:54;;;;;;;52.70;5.43;;;;;;;23.82;59.20;99476.78;7315868;19;129182;-38
2023/06/10 08:03:19;;;;;;;50.90;4.38;;;;;;;23.84;59.06;99466.09;7318798;19;129397;-39
2023/06/10 08:05:44;;;;;;;40.40;4.87;;;;;;;23.85;59.17;99475.66;7315263;19;130427;-40
2023/06/10 08:08:10;;;;;;;31.83;4.17;;;;;;;23.87;58.65;99476.28;7317663;19;129038;-38
2023/06/10 08:10:35;;;;;;;61.00;5.50;;;;;;;23.74;59.07;99460.16;7315079;19;130114;-38
2023/06/10 08:13:01;;;;;;;86.07;6.80;;;;;;;23.83;59.39;99481.03;7316779;19;129308;-39
2023/06/10 08:15:26;;;;;;;8.60;2.90;;;;;;;23.81;58.78;99477.75;7316461;19;129157;-38
2023/06/10 08:17:51;;;;;;;70.93;6.47;;;;;;;23.75;58.33;99478.38;7315485;19;130764;-40
2023/06/10 08:20:18;;;;;;;49.93;5.10;;;;;;;23.78;58.97;99483.34;7316716;19;129011;-40
2023/06/10 08:22:43;;;;;;;59.38;5.45;;;;;;;23.74;58.60;99478.53;7316954;19;130281;-39
2023/06/10 08:25:09;;;;;;;44.60;4.87;;;;;;;23.79;59.08;99484.97;7311729;19;129628;-38
2023/06/10 08:27:35;;;;;;;32.83;4.53;;;;;;;23.82;58.32;99495.16;7316618;19;129382;-38
2023/06/10 08:30:00;;;;;;;49.40;5.07;;;;;;;23.79;58.81;99492.00;7313519;19;128909;-40
2023/06/10 08:32:26;;;;;;;57.67;5.27;;;;;;;23.83;59.41;99496.78;7315855;19;129205;-40
2023/06/10 08:34:51;;;;;;;40.00;4.75;;;;;;;23.83;58.88;99488.09;7312115;19;129194;-38
2023/06/10 08:37:16;;;;;;;43.97;5.30;;;;;;;23.77;58.82;99489.53;7315835;19;129098;-40
2023/06/10 08:39:42;;;;;;;104.50;7.87;;;;;;;23.84;59.18;99503.69;7310906;19;129601;-39
2023/06/10 08:42:07;;;;;;;49.10;5.05;;;;;;;23.84;59.06;99493.19;7315825;19;129412;-39
2023/06/10 08:44:37;;;;;;;41.60;5.27;;;;;;;23.79;59.39;99479.72;7315566;19;129592;-38
2023/06/10 08:47:08;;;;;;;42.03;5.05;;;;;;;23.87;59.11;99492.88;7311552;19;129499;-39
2023/06/10 08:49:41;;;;;;;49.70;5.00;;;;;;;23.85;59.17;99494.81;7315838;19;129397;-38
2023/06/10 08:52:07;;;;;;;60.72;6.15;;;;;;;23.84;59.28;99487.94;7315832;19;129207;-40
2023/06/10 08:54:37;;;;;;;34.17;4.63;;;;;;;23.86;59.65;99490.41;7314794;19;129734;-39
2023/06/10 08:57:06;;;;;;;34.47;4.63;;;;;;;23.84;59.63;99487.94;7316755;19;129158;-39
2023/06/10 08:59:31;;;;;;;52.10;5.47;;;;;;;23.83;59.37;99486.28;7313700;19;129459;-38
2023/06/10 09:01:58;;;;;;;65.27;5.87;;;;;;;23.83;59.67;99482.84;7314947;19;129713;-40
2023/06/10 09:04:24;;;;;;;108.63;8.20;;;;;;;23.82;59.27;99484.66;7313897;19;130469;-39
2023/06/10 09:06:50;;;;;;;41.83;4.97;;;;;;;23.85;58.87;99478.28;7316319;19;128905;-40
2023/06/10 09:09:17;;;;;;;49.92;5.18;;;;;;;23.83;59.35;99481.03;7314878;19;129655;-38
2023/06/10 09:11:43;;;;;;;64.72;5.75;;;;;;;23.83;59.52;99475.78;7312537;19;132967;-40
2023/06/10 09:14:08;;;;;;;39.03;4.87;;;;;;;23.82;58.98;99474.16;7316181;19;130394;-40
2023/06/10 09:16:34;;;;;;;43.58;4.80;;;;;;;23.82;59.57;99468.06;7311625;19;130964;-38
2023/06/10 09:19:00;;;;;;;24.88;4.30;;;;;;;23.84;59.12;99479.22;7315548;19;129005;-40
2023/06/10 09:21:25;;;;;;;63.13;6.03;;;;;;;23.82;58.85;99474.16;7314344;19;129532;-38
2023/06/10 09:23:51;;;;;;;68.67;6.20;;;;;;;23.76;59.02;99464.28;7312765;19;130759;-40
2023/06/10 09:26:17;;;;;;;53.30;5.40;;;;;;;23.82;59.42;99474.16;7308404;19;129765;-39
2023/06/10 09:28:44;;;;;;;40.08;5.03;;;;;;;23.81;59.45;99472.50;7314794;19;128995;-39
2023/06/10 09:31:11;;;;;;;67.25;6.05;;;;;;;23.84;59.51;99471.34;7312411;19;131564;-39
2023/06/10 09:33:41;;;;;;;28.38;4.28;;;;;;;23.83;58.68;99481.03;7315854;19;129200;-39
2023/06/10 09:36:07;;;;;;;35.30;4.32;;;;;;;23.58;57.24;99476.66;7309585;19;129212;-38
2023/06/10 09:38:34;;;;;;;35.40;4.83;;;;;;;23.39;60.82;99487.34;7316176;19;130489;-39
2023/06/10 09:41:03;;;;;;;97.88;7.65;;;;;;;23.42;61.09;99484.41;7309471;19;129508;-40
2023/06/10 09:43:46;;;;;;;15.52;3.42;;;;;;;23.52;60.85;99486.94;7316835;19;129696;-38
2023/06/10 09:46:16;;;;;;;55.80;5.55;;;;;;;23.64;60.33;99483.91;7308989;19;129053;-40
2023/06/10 09:48:48;;;;;;;35.80;4.63;;;;;;;23.31;59.65;99468.09;7315020;19;129440;-38
2023/06/10 09:51:14;;;;;;;62.70;5.75;;;;;;;23.50;61.17;99487.09;7311936;19;129857;-38
2023/06/10 09:53:40;;;;;;;51.80;5.32;;;;;;;23.47;60.60;99479.50;7315087;19;129546;-38
2023/06/10 09:56:05;;;;;;;108.17;8.43;;;;;;;23.20;61.34;99477.00;7309805;19;129026;-39
2023/06/10 09:58:36;;;;;;;30.23;4.50;;;;;;;23.38;61.84;99490.13;7312589;19;129703;-40
2023/06/10 10:01:11;;;;;;;80.10;7.43;;;;;;;23.34;60.02;99494.84;7313239;19;129421;-38
2023/06/10 10:03:52;;;;;;;34.17;4.57;;;;;;;23.13;61.76;99489.91;7314541;19;130951;-39
2023/06/10 10:06:19;;;;;;;109.97;8.80;;;;;;;23.11;61.22;99485.78;7310932;19;130465;-39
2023/06/10 10:08:46;;;;;;;83.07;7.40;;;;;;;23.19;61.81;99488.47;7313534;19;129104;-39
2023/06/10 10:11:12;;;;;;;41.75;5.50;;;;;;;23.32;61.53;99486.28;7312871;19;129140;-39
2023/06/10 10:13:39;;;;;;;58.03;5.93;;;;;;;23.28;61.55;99486.75;7312947;19;129771;-39
2023/06/10 10:16:15;;;;;;;67.47;6.72;;;;;;;23.17;60.61;99493.06;7309284;19;129058;-39
2023/06/10 10:18:45;;;;;;;54.25;5.82;;;;;;;23.27;62.25;99488.56;7311914;19;131371;-41
2023/06/10 10:21:17;;;;;;;21.33;4.03;;;;;;;23.34;61.54;99486.97;7313244;19;130922;-38
2023/06/10 10:23:52;;;;;;;55.70;6.03;;;;;;;23.39;59.98;99486.53;7311088;19;130121;-40
2023/06/10 10:26:18;;;;;;;30.80;4.72;;;;;;;23.11;61.36;99486.63;7308856;19;129668;-39
2023/06/10 10:28:58;;;;;;;53.80;5.95;;;;;;;23.17;62.16;99469.47;7310155;19;130134;-40
2023/06/10 10:31:26;;;;;;;58.78;5.57;;;;;;;23.37;61.72;99480.63;7308641;19;129379;-37
2023/06/10 10:33:57;;;;;;;70.90;6.85;;;;;;;23.50;61.44;99478.41;7310485;19;129677;-39
2023/06/10 10:36:23;;;;;;;131.82;9.73;;;;;;;23.56;61.49;99483.00;7304710;19;129548;-39
2023/06/10 10:38:49;;;;;;;37.43;4.87;;;;;;;23.58;61.03;99481.91;7309400;19;129236;-38
2023/06/10 10:41:15;;;;;;;49.53;5.20;;;;;;;23.64;60.83;99483.91;7309586;19;131327;-38
2023/06/10 10:43:43;;;;;;;77.35;6.40;;;;;;;23.73;59.56;99490.03;7311063;19;130172;-39
2023/06/10 10:46:17;;;;;;;70.68;6.18;;;;;;;23.65;60.82;99485.53;7304924;19;129630;-39
2023/06/10 10:48:42;;;;;;;120.63;9.02;;;;;;;23.44;60.01;99484.25;7292253;19;130574;-42
2023/06/10 10:51:09;;;;;;;83.77;7.37;;;;;;;23.54;61.54;99485.78;7306743;19;131108;-40
2023/06/10 10:53:36;;;;;;;55.42;5.25;;;;;;;23.66;60.57;99479.31;7314131;19;129640;-40
2023/06/10 10:56:06;;;;;;;36.92;4.88;;;;;;;23.70;60.30;99470.13;7305774;19;130395;-39
2023/06/10 10:58:32;;;;;;;34.28;4.05;;;;;;;23.66;60.72;99479.31;7310273;19;129453;-39
2023/06/10 11:00:57;;;;;;;32.70;4.93;;;;;;;23.37;57.44;99481.41;7310895;19;130079;-38
2023/06/10 11:03:30;;;;;;;73.60;6.50;;;;;;;22.92;61.80;99460.53;7307404;19;129613;-39
2023/06/10 11:05:57;;;;;;;43.67;4.82;;;;;;;23.30;61.29;99483.03;7306434;19;128781;-39
2023/06/10 11:08:28;;;;;;;65.63;6.13;;;;;;;23.52;61.42;99469.38;7310520;19;129362;-39
2023/06/10 11:10:54;;;;;;;35.72;4.57;;;;;;;23.55;60.60;99461.19;7307821;19;132205;-37
2023/06/10 11:13:22;;;;;;;41.67;4.73;;;;;;;23.62;60.86;99456.97;7312484;19;130180;-40